sensor_id;sensor_type;location;lat;lon;timestamp;temperature;humidity
2945;DHT22;1482;51.398;7.128;2023-10-09T00:00:51;16.80;99.90
2945;DHT22;1482;51.398;7.128;2023-10-09T00:03:21;16.80;99.90
2945;DHT22;1482;51.398;7.128;2023-10-09T00:05:50;16.80;99.90
2945;DHT22;1482;51.398;7.128;2023-10-09T00:08:19;16.70;99.90
2945;DHT22;1482;51.398;7.128;2023-10-09T00:10:46;16.70;99.90
2945;DHT22;1482;51.398;7.128;2023-10-09T00:13:22;16.70;99.90
2945;DHT22;1482;51.398;7.128;2023-10-09T00:15:57;16.70;99.90
2945;DHT22;1482;51.398;7.128;2023-10-09T00:18:27;16.70;99.90
2945;DHT22;1482;51.398;7.128;2023-10-09T00:20:59;16.70;99.90
2945;DHT22;1482;51.398;7.128;2023-10-09T00:23:37;16.70;99.90
2945;DHT22;1482;51.398;7.128;2023-10-09T00:26:03;16.60;99.90
2945;DHT22;1482;51.398;7.128;2023-10-09T00:28:37;16.60;99.90
2945;DHT22;1482;51.398;7.128;2023-10-09T00:31:04;16.70;99.90
2945;DHT22;1482;51.398;7.128;2023-10-09T00:33:32;16.60;99.90
2945;DHT22;1482;51.398;7.128;2023-10-09T00:36:04;16.60;99.90
2945;DHT22;1482;51.398;7.128;2023-10-09T00:38:37;16.60;99.90
2945;DHT22;1482;51.398;7.128;2023-10-09T00:41:10;16.60;99.90
2945;DHT22;1482;51.398;7.128;2023-10-09T00:43:37;16.60;99.90
2945;DHT22;1482;51.398;7.128;2023-10-09T00:46:05;16.70;99.90
2945;DHT22;1482;51.398;7.128;2023-10-09T00:48:42;16.70;99.90
2945;DHT22;1482;51.398;7.128;2023-10-09T00:51:08;16.70;99.90
2945;DHT22;1482;51.398;7.128;2023-10-09T00:53:46;16.60;99.90
2945;DHT22;1482;51.398;7.128;2023-10-09T00:56:15;16.70;99.90
2945;DHT22;1482;51.398;7.128;2023-10-09T00:58:49;16.70;99.90
2945;DHT22;1482;51.398;7.128;2023-10-09T01:01:24;16.70;99.90
2945;DHT22;1482;51.398;7.128;2023-10-09T01:04:06;16.70;99.90
2945;DHT22;1482;51.398;7.128;2023-10-09T01:06:45;16.70;99.90
2945;DHT22;1482;51.398;7.128;2023-10-09T01:09:29;16.80;99.90
2945;DHT22;1482;51.398;7.128;2023-10-09T01:12:02;16.80;99.90
2945;DHT22;1482;51.398;7.128;2023-10-09T01:14:27;16.80;99.90
2945;DHT22;1482;51.398;7.128;2023-10-09T01:16:53;16.80;99.90
2945;DHT22;1482;51.398;7.128;2023-10-09T01:19:20;16.80;99.90
2945;DHT22;1482;51.398;7.128;2023-10-09T01:21:50;16.90;99.90
2945;DHT22;1482;51.398;7.128;2023-10-09T01:24:16;16.90;99.90
2945;DHT22;1482;51.398;7.128;2023-10-09T01:26:42;16.90;99.90
2945;DHT22;1482;51.398;7.128;2023-10-09T01:29:22;16.90;99.90
2945;DHT22;1482;51.398;7.128;2023-10-09T01:31:53;16.90;99.90
2945;DHT22;1482;51.398;7.128;2023-10-09T01:34:27;16.90;99.90
2945;DHT22;1482;51.398;7.128;2023-10-09T01:37:13;16.90;99.90
2945;DHT22;1482;51.398;7.128;2023-10-09T01:39:52;16.90;99.90
2945;DHT22;1482;51.398;7.128;2023-10-09T01:42:18;16.90;99.90
2945;DHT22;1482;51.398;7.128;2023-10-09T01:44:53;16.90;99.90
2945;DHT22;1482;51.398;7.128;2023-10-09T01:47:18;16.90;99.90
2945;DHT22;1482;51.398;7.128;2023-10-09T01:49:45;16.90;99.90
2945;DHT22;1482;51.398;7.128;2023-10-09T01:52:14;16.90;99.90
2945;DHT22;1482;51.398;7.128;2023-10-09T01:54:44;16.80;99.90
2945;DHT22;1482;51.398;7.128;2023-10-09T01:57:15;16.80;99.90
2945;DHT22;1482;51.398;7.128;2023-10-09T01:59:43;16.80;99.90
2945;DHT22;1482;51.398;7.128;2023-10-09T02:02:10;16.80;99.90
2945;DHT22;1482;51.398;7.128;2023-10-09T02:04:42;16.80;99.90
2945;DHT22;1482;51.398;7.128;2023-10-09T02:07:08;16.70;99.90
2945;DHT22;1482;51.398;7.128;2023-10-09T02:09:35;16.70;99.90
2945;DHT22;1482;51.398;7.128;2023-10-09T02:12:09;16.60;99.90
2945;DHT22;1482;51.398;7.128;2023-10-09T02:14:35;16.60;99.90
2945;DHT22;1482;51.398;7.128;2023-10-09T02:17:06;16.50;99.90
2945;DHT22;1482;51.398;7.128;2023-10-09T02:19:45;16.50;99.90
2945;DHT22;1482;51.398;7.128;2023-10-09T02:22:15;16.40;99.90
2945;DHT22;1482;51.398;7.128;2023-10-09T02:24:45;16.40;99.90
2945;DHT22;1482;51.398;7.128;2023-10-09T02:27:13;16.40;99.90
2945;DHT22;1482;51.398;7.128;2023-10-09T02:29:46;16.40;99.90
2945;DHT22;1482;51.398;7.128;2023-10-09T02:32:13;16.40;99.90
2945;DHT22;1482;51.398;7.128;2023-10-09T02:34:40;16.30;99.90
2945;DHT22;1482;51.398;7.128;2023-10-09T02:37:06;16.30;99.90
2945;DHT22;1482;51.398;7.128;2023-10-09T02:39:32;16.40;99.90
2945;DHT22;1482;51.398;7.128;2023-10-09T02:42:09;16.40;99.90
2945;DHT22;1482;51.398;7.128;2023-10-09T02:44:37;16.50;99.90
2945;DHT22;1482;51.398;7.128;2023-10-09T02:47:06;16.40;99.90
2945;DHT22;1482;51.398;7.128;2023-10-09T02:49:37;16.50;99.90
2945;DHT22;1482;51.398;7.128;2023-10-09T02:52:06;16.50;99.90
2945;DHT22;1482;51.398;7.128;2023-10-09T02:54:36;16.50;99.90
2945;DHT22;1482;51.398;7.128;2023-10-09T02:57:06;16.60;99.90
2945;DHT22;1482;51.398;7.128;2023-10-09T02:59:36;16.60;99.90
2945;DHT22;1482;51.398;7.128;2023-10-09T03:02:07;16.60;99.90
2945;DHT22;1482;51.398;7.128;2023-10-09T03:04:33;16.60;99.90
2945;DHT22;1482;51.398;7.128;2023-10-09T03:06:59;16.60;99.90
2945;DHT22;1482;51.398;7.128;2023-10-09T03:09:25;16.60;99.90
2945;DHT22;1482;51.398;7.128;2023-10-09T03:11:55;16.60;99.90
2945;DHT22;1482;51.398;7.128;2023-10-09T03:14:31;16.70;99.90
2945;DHT22;1482;51.398;7.128;2023-10-09T03:16:57;16.70;99.90
2945;DHT22;1482;51.398;7.128;2023-10-09T03:19:32;16.70;99.90
2945;DHT22;1482;51.398;7.128;2023-10-09T03:22:05;16.80;99.90
2945;DHT22;1482;51.398;7.128;2023-10-09T03:24:34;16.80;99.90
2945;DHT22;1482;51.398;7.128;2023-10-09T03:27:00;16.80;99.90
2945;DHT22;1482;51.398;7.128;2023-10-09T03:29:26;16.80;99.90
2945;DHT22;1482;51.398;7.128;2023-10-09T03:31:52;16.80;99.90
2945;DHT22;1482;51.398;7.128;2023-10-09T03:34:20;16.90;99.90
2945;DHT22;1482;51.398;7.128;2023-10-09T03:36:46;16.80;99.90
2945;DHT22;1482;51.398;7.128;2023-10-09T03:39:13;16.90;99.90
2945;DHT22;1482;51.398;7.128;2023-10-09T03:41:57;16.90;99.90
2945;DHT22;1482;51.398;7.128;2023-10-09T03:44:31;16.90;99.90
2945;DHT22;1482;51.398;7.128;2023-10-09T03:46:59;16.90;99.90
2945;DHT22;1482;51.398;7.128;2023-10-09T03:49:25;16.90;99.90
2945;DHT22;1482;51.398;7.128;2023-10-09T03:51:51;16.90;99.90
2945;DHT22;1482;51.398;7.128;2023-10-09T03:54:17;16.80;99.90
2945;DHT22;1482;51.398;7.128;2023-10-09T03:56:46;16.80;99.90
2945;DHT22;1482;51.398;7.128;2023-10-09T03:59:18;16.80;99.90
2945;DHT22;1482;51.398;7.128;2023-10-09T04:01:47;16.90;99.90
2945;DHT22;1482;51.398;7.128;2023-10-09T04:04:18;16.90;99.90
2945;DHT22;1482;51.398;7.128;2023-10-09T04:06:49;16.90;99.90
2945;DHT22;1482;51.398;7.128;2023-10-09T04:09:17;16.90;99.90
2945;DHT22;1482;51.398;7.128;2023-10-09T04:11:50;16.90;99.90
2945;DHT22;1482;51.398;7.128;2023-10-09T04:14:25;16.90;99.90
2945;DHT22;1482;51.398;7.128;2023-10-09T04:16:59;16.90;99.90
2945;DHT22;1482;51.398;7.128;2023-10-09T04:19:43;16.90;99.90
2945;DHT22;1482;51.398;7.128;2023-10-09T04:22:34;16.90;99.90
2945;DHT22;1482;51.398;7.128;2023-10-09T04:25:05;16.90;99.90
2945;DHT22;1482;51.398;7.128;2023-10-09T04:27:40;16.90;99.90
2945;DHT22;1482;51.398;7.128;2023-10-09T04:30:06;16.80;99.90
2945;DHT22;1482;51.398;7.128;2023-10-09T04:32:33;16.90;99.90
2945;DHT22;1482;51.398;7.128;2023-10-09T04:35:02;16.90;99.90
2945;DHT22;1482;51.398;7.128;2023-10-09T04:37:49;16.90;99.90
2945;DHT22;1482;51.398;7.128;2023-10-09T04:40:25;16.90;99.90
2945;DHT22;1482;51.398;7.128;2023-10-09T04:43:09;16.90;99.90
2945;DHT22;1482;51.398;7.128;2023-10-09T04:45:46;16.90;99.90
2945;DHT22;1482;51.398;7.128;2023-10-09T04:48:30;16.90;99.90
2945;DHT22;1482;51.398;7.128;2023-10-09T04:51:01;16.90;99.90
2945;DHT22;1482;51.398;7.128;2023-10-09T04:53:46;16.90;99.90
2945;DHT22;1482;51.398;7.128;2023-10-09T04:56:38;16.80;99.90
2945;DHT22;1482;51.398;7.128;2023-10-09T04:59:20;16.80;99.90
2945;DHT22;1482;51.398;7.128;2023-10-09T05:01:50;16.80;99.90
2945;DHT22;1482;51.398;7.128;2023-10-09T05:04:24;16.70;99.90
2945;DHT22;1482;51.398;7.128;2023-10-09T05:07:06;16.80;99.90
2945;DHT22;1482;51.398;7.128;2023-10-09T05:09:52;16.80;99.90
2945;DHT22;1482;51.398;7.128;2023-10-09T05:12:35;16.80;99.90
2945;DHT22;1482;51.398;7.128;2023-10-09T05:15:06;16.80;99.90
2945;DHT22;1482;51.398;7.128;2023-10-09T05:17:38;16.80;99.90
2945;DHT22;1482;51.398;7.128;2023-10-09T05:20:04;16.80;99.90
2945;DHT22;1482;51.398;7.128;2023-10-09T05:22:49;16.90;99.90
2945;DHT22;1482;51.398;7.128;2023-10-09T05:25:27;16.90;99.90
2945;DHT22;1482;51.398;7.128;2023-10-09T05:28:15;16.80;99.90
2945;DHT22;1482;51.398;7.128;2023-10-09T05:31:07;16.90;99.90
2945;DHT22;1482;51.398;7.128;2023-10-09T05:33:34;16.80;99.90
2945;DHT22;1482;51.398;7.128;2023-10-09T05:36:06;16.80;99.90
2945;DHT22;1482;51.398;7.128;2023-10-09T05:39:04;16.80;99.90
2945;DHT22;1482;51.398;7.128;2023-10-09T05:42:06;16.80;99.90
2945;DHT22;1482;51.398;7.128;2023-10-09T05:44:35;16.80;99.90
2945;DHT22;1482;51.398;7.128;2023-10-09T05:47:19;16.80;99.90
2945;DHT22;1482;51.398;7.128;2023-10-09T05:49:57;16.90;99.90
2945;DHT22;1482;51.398;7.128;2023-10-09T05:52:34;16.90;99.90
2945;DHT22;1482;51.398;7.128;2023-10-09T05:55:03;16.90;99.90
2945;DHT22;1482;51.398;7.128;2023-10-09T05:57:45;16.90;99.90
2945;DHT22;1482;51.398;7.128;2023-10-09T06:00:29;17.00;99.90
2945;DHT22;1482;51.398;7.128;2023-10-09T06:03:13;16.90;99.90
2945;DHT22;1482;51.398;7.128;2023-10-09T06:05:48;17.00;99.90
2945;DHT22;1482;51.398;7.128;2023-10-09T06:08:31;16.90;99.90
2945;DHT22;1482;51.398;7.128;2023-10-09T06:11:12;17.00;99.90
2945;DHT22;1482;51.398;7.128;2023-10-09T06:13:58;17.00;99.90
2945;DHT22;1482;51.398;7.128;2023-10-09T06:16:34;17.00;99.90
2945;DHT22;1482;51.398;7.128;2023-10-09T06:19:11;17.00;99.90
2945;DHT22;1482;51.398;7.128;2023-10-09T06:21:38;17.10;99.90
2945;DHT22;1482;51.398;7.128;2023-10-09T06:24:23;17.00;99.90
2945;DHT22;1482;51.398;7.128;2023-10-09T06:26:49;17.10;99.90
2945;DHT22;1482;51.398;7.128;2023-10-09T06:29:18;17.10;99.90
2945;DHT22;1482;51.398;7.128;2023-10-09T06:32:02;17.10;99.90
2945;DHT22;1482;51.398;7.128;2023-10-09T06:34:47;17.10;99.90
2945;DHT22;1482;51.398;7.128;2023-10-09T06:37:23;17.10;99.90
2945;DHT22;1482;51.398;7.128;2023-10-09T06:42:24;17.10;99.90
2945;DHT22;1482;51.398;7.128;2023-10-09T06:45:10;17.10;99.90
2945;DHT22;1482;51.398;7.128;2023-10-09T06:47:38;17.20;99.90
2945;DHT22;1482;51.398;7.128;2023-10-09T06:52:46;17.20;99.90
2945;DHT22;1482;51.398;7.128;2023-10-09T06:55:23;17.20;99.90
2945;DHT22;1482;51.398;7.128;2023-10-09T06:57:59;17.10;99.90
2945;DHT22;1482;51.398;7.128;2023-10-09T07:00:27;17.20;99.90
2945;DHT22;1482;51.398;7.128;2023-10-09T07:03:12;17.20;99.90
2945;DHT22;1482;51.398;7.128;2023-10-09T07:05:38;17.20;99.90
2945;DHT22;1482;51.398;7.128;2023-10-09T07:08:23;17.10;99.90
2945;DHT22;1482;51.398;7.128;2023-10-09T07:11:00;17.20;99.90
2945;DHT22;1482;51.398;7.128;2023-10-09T07:13:45;17.30;99.90
2945;DHT22;1482;51.398;7.128;2023-10-09T07:16:32;17.30;99.90
2945;DHT22;1482;51.398;7.128;2023-10-09T07:19:05;17.30;99.90
2945;DHT22;1482;51.398;7.128;2023-10-09T07:21:56;17.40;99.90
2945;DHT22;1482;51.398;7.128;2023-10-09T07:24:31;17.40;99.90
2945;DHT22;1482;51.398;7.128;2023-10-09T07:27:11;17.50;99.90
2945;DHT22;1482;51.398;7.128;2023-10-09T07:29:41;17.50;99.90
2945;DHT22;1482;51.398;7.128;2023-10-09T07:32:16;17.60;99.90
2945;DHT22;1482;51.398;7.128;2023-10-09T07:34:50;17.60;99.90
2945;DHT22;1482;51.398;7.128;2023-10-09T07:37:27;17.70;99.90
2945;DHT22;1482;51.398;7.128;2023-10-09T07:40:04;17.80;99.90
2945;DHT22;1482;51.398;7.128;2023-10-09T07:42:33;17.90;99.90
2945;DHT22;1482;51.398;7.128;2023-10-09T07:45:09;18.00;99.90
2945;DHT22;1482;51.398;7.128;2023-10-09T07:47:58;18.10;99.90
2945;DHT22;1482;51.398;7.128;2023-10-09T07:50:37;18.10;99.90
2945;DHT22;1482;51.398;7.128;2023-10-09T07:53:06;18.10;99.90
2945;DHT22;1482;51.398;7.128;2023-10-09T07:55:46;18.10;99.90
2945;DHT22;1482;51.398;7.128;2023-10-09T07:58:27;18.00;99.90
2945;DHT22;1482;51.398;7.128;2023-10-09T08:00:55;18.10;99.90
2945;DHT22;1482;51.398;7.128;2023-10-09T08:03:24;18.40;99.90
2945;DHT22;1482;51.398;7.128;2023-10-09T08:05:52;18.60;99.90
2945;DHT22;1482;51.398;7.128;2023-10-09T08:08:19;18.60;92.90
2945;DHT22;1482;51.398;7.128;2023-10-09T08:10:54;18.60;91.00
2945;DHT22;1482;51.398;7.128;2023-10-09T08:13:38;18.60;90.90
2945;DHT22;1482;51.398;7.128;2023-10-09T08:16:23;18.50;94.40
2945;DHT22;1482;51.398;7.128;2023-10-09T08:18:50;18.50;97.80
2945;DHT22;1482;51.398;7.128;2023-10-09T08:21:19;18.50;99.90
2945;DHT22;1482;51.398;7.128;2023-10-09T08:23:45;18.60;99.90
2945;DHT22;1482;51.398;7.128;2023-10-09T08:26:15;18.70;98.30
2945;DHT22;1482;51.398;7.128;2023-10-09T08:28:44;18.80;95.00
2945;DHT22;1482;51.398;7.128;2023-10-09T08:31:17;18.80;92.40
2945;DHT22;1482;51.398;7.128;2023-10-09T08:34:11;18.90;92.00
2945;DHT22;1482;51.398;7.128;2023-10-09T08:36:49;19.00;84.90
2945;DHT22;1482;51.398;7.128;2023-10-09T08:39:18;18.90;85.40
2945;DHT22;1482;51.398;7.128;2023-10-09T08:41:51;19.10;85.00
2945;DHT22;1482;51.398;7.128;2023-10-09T08:44:19;19.00;94.00
2945;DHT22;1482;51.398;7.128;2023-10-09T08:46:49;18.90;85.90
2945;DHT22;1482;51.398;7.128;2023-10-09T08:49:16;18.80;92.80
2945;DHT22;1482;51.398;7.128;2023-10-09T08:51:42;18.70;99.20
2945;DHT22;1482;51.398;7.128;2023-10-09T08:54:08;18.70;99.90
2945;DHT22;1482;51.398;7.128;2023-10-09T08:56:37;18.70;99.90
2945;DHT22;1482;51.398;7.128;2023-10-09T08:59:05;18.70;99.90
2945;DHT22;1482;51.398;7.128;2023-10-09T09:01:30;18.50;99.90
2945;DHT22;1482;51.398;7.128;2023-10-09T09:03:59;18.50;99.90
2945;DHT22;1482;51.398;7.128;2023-10-09T09:06:36;18.30;99.90
2945;DHT22;1482;51.398;7.128;2023-10-09T09:09:11;18.30;99.90
2945;DHT22;1482;51.398;7.128;2023-10-09T09:11:41;18.10;99.90
2945;DHT22;1482;51.398;7.128;2023-10-09T09:14:14;18.10;99.90
2945;DHT22;1482;51.398;7.128;2023-10-09T09:16:44;18.30;99.90
2945;DHT22;1482;51.398;7.128;2023-10-09T09:19:13;18.50;99.90
2945;DHT22;1482;51.398;7.128;2023-10-09T09:21:57;18.60;99.90
2945;DHT22;1482;51.398;7.128;2023-10-09T09:24:25;18.80;99.90
2945;DHT22;1482;51.398;7.128;2023-10-09T09:26:55;19.20;99.90
2945;DHT22;1482;51.398;7.128;2023-10-09T09:29:44;19.60;99.90
2945;DHT22;1482;51.398;7.128;2023-10-09T09:32:29;20.70;83.80
2945;DHT22;1482;51.398;7.128;2023-10-09T09:35:01;21.70;47.40
2945;DHT22;1482;51.398;7.128;2023-10-09T09:37:30;22.50;36.60
2945;DHT22;1482;51.398;7.128;2023-10-09T09:40:08;23.10;22.40
2945;DHT22;1482;51.398;7.128;2023-10-09T09:42:58;23.10;16.00
2945;DHT22;1482;51.398;7.128;2023-10-09T09:45:39;23.20;14.20
2945;DHT22;1482;51.398;7.128;2023-10-09T09:48:14;22.70;10.70
2945;DHT22;1482;51.398;7.128;2023-10-09T09:50:42;22.80;12.70
2945;DHT22;1482;51.398;7.128;2023-10-09T09:53:15;22.50;11.60
2945;DHT22;1482;51.398;7.128;2023-10-09T09:55:52;22.30;10.90
2945;DHT22;1482;51.398;7.128;2023-10-09T09:58:21;22.20;11.30
2945;DHT22;1482;51.398;7.128;2023-10-09T10:00:51;22.20;13.40
2945;DHT22;1482;51.398;7.128;2023-10-09T10:03:29;22.20;13.80
2945;DHT22;1482;51.398;7.128;2023-10-09T10:05:58;22.30;13.30
2945;DHT22;1482;51.398;7.128;2023-10-09T10:08:26;22.30;12.70
2945;DHT22;1482;51.398;7.128;2023-10-09T10:10:58;22.30;12.40
2945;DHT22;1482;51.398;7.128;2023-10-09T10:13:56;22.30;12.20
2945;DHT22;1482;51.398;7.128;2023-10-09T10:16:27;22.40;13.40
2945;DHT22;1482;51.398;7.128;2023-10-09T10:19:04;22.60;13.10
2945;DHT22;1482;51.398;7.128;2023-10-09T10:21:47;22.80;12.80
2945;DHT22;1482;51.398;7.128;2023-10-09T10:29:44;22.70;10.00
2945;DHT22;1482;51.398;7.128;2023-10-09T10:32:11;22.70;8.10
2945;DHT22;1482;51.398;7.128;2023-10-09T10:37:13;22.70;6.50
2945;DHT22;1482;51.398;7.128;2023-10-09T10:39:52;22.70;7.00
2945;DHT22;1482;51.398;7.128;2023-10-09T10:42:25;22.80;7.90
2945;DHT22;1482;51.398;7.128;2023-10-09T10:45:02;22.90;6.20
2945;DHT22;1482;51.398;7.128;2023-10-09T10:47:28;23.00;6.40
2945;DHT22;1482;51.398;7.128;2023-10-09T10:50:01;23.10;5.60
2945;DHT22;1482;51.398;7.128;2023-10-09T10:53:13;23.10;4.30
2945;DHT22;1482;51.398;7.128;2023-10-09T10:56:00;23.10;3.70
2945;DHT22;1482;51.398;7.128;2023-10-09T10:58:41;22.90;1.30
2945;DHT22;1482;51.398;7.128;2023-10-09T11:01:33;22.60;1.00
2945;DHT22;1482;51.398;7.128;2023-10-09T11:04:18;22.70;1.00
2945;DHT22;1482;51.398;7.128;2023-10-09T11:07:05;22.70;1.00
2945;DHT22;1482;51.398;7.128;2023-10-09T11:12:28;22.80;1.00
2945;DHT22;1482;51.398;7.128;2023-10-09T11:15:06;22.90;1.00
2945;DHT22;1482;51.398;7.128;2023-10-09T11:17:35;22.90;1.00
2945;DHT22;1482;51.398;7.128;2023-10-09T11:20:05;22.80;1.00
2945;DHT22;1482;51.398;7.128;2023-10-09T11:22:51;22.80;1.00
2945;DHT22;1482;51.398;7.128;2023-10-09T11:25:35;22.80;1.00
2945;DHT22;1482;51.398;7.128;2023-10-09T11:28:03;22.70;1.00
2945;DHT22;1482;51.398;7.128;2023-10-09T11:30:49;22.60;1.00
2945;DHT22;1482;51.398;7.128;2023-10-09T11:33:21;22.60;1.00
2945;DHT22;1482;51.398;7.128;2023-10-09T11:35:56;22.60;1.00
2945;DHT22;1482;51.398;7.128;2023-10-09T11:38:23;22.70;1.00
2945;DHT22;1482;51.398;7.128;2023-10-09T11:40:49;22.80;2.70
2945;DHT22;1482;51.398;7.128;2023-10-09T11:43:15;22.90;1.00
2945;DHT22;1482;51.398;7.128;2023-10-09T11:45:41;22.80;1.00
2945;DHT22;1482;51.398;7.128;2023-10-09T11:48:20;23.00;1.00
2945;DHT22;1482;51.398;7.128;2023-10-09T11:51:12;23.00;1.00
2945;DHT22;1482;51.398;7.128;2023-10-09T11:53:45;23.00;1.00
2945;DHT22;1482;51.398;7.128;2023-10-09T11:56:14;23.10;1.00
2945;DHT22;1482;51.398;7.128;2023-10-09T11:58:42;23.20;1.00
2945;DHT22;1482;51.398;7.128;2023-10-09T12:01:14;23.30;1.00
2945;DHT22;1482;51.398;7.128;2023-10-09T12:03:43;23.40;1.00
2945;DHT22;1482;51.398;7.128;2023-10-09T12:06:15;23.50;7.50
2945;DHT22;1482;51.398;7.128;2023-10-09T12:08:45;23.70;1.00
2945;DHT22;1482;51.398;7.128;2023-10-09T12:11:12;23.80;1.00
2945;DHT22;1482;51.398;7.128;2023-10-09T12:13:40;23.80;1.00
2945;DHT22;1482;51.398;7.128;2023-10-09T12:16:07;23.80;1.00
2945;DHT22;1482;51.398;7.128;2023-10-09T12:18:34;23.80;1.00
2945;DHT22;1482;51.398;7.128;2023-10-09T12:21:00;23.60;1.00
2945;DHT22;1482;51.398;7.128;2023-10-09T12:23:30;23.70;1.00
2945;DHT22;1482;51.398;7.128;2023-10-09T12:26:02;23.70;1.00
2945;DHT22;1482;51.398;7.128;2023-10-09T12:28:28;23.60;1.00
2945;DHT22;1482;51.398;7.128;2023-10-09T12:30:54;23.50;1.00
2945;DHT22;1482;51.398;7.128;2023-10-09T12:33:21;23.50;1.00
2945;DHT22;1482;51.398;7.128;2023-10-09T12:35:56;23.60;1.00
2945;DHT22;1482;51.398;7.128;2023-10-09T12:38:29;23.50;1.00
2945;DHT22;1482;51.398;7.128;2023-10-09T12:41:03;23.50;1.00
2945;DHT22;1482;51.398;7.128;2023-10-09T12:43:34;23.60;1.00
2945;DHT22;1482;51.398;7.128;2023-10-09T12:46:06;23.70;1.00
2945;DHT22;1482;51.398;7.128;2023-10-09T12:48:33;23.70;1.00
2945;DHT22;1482;51.398;7.128;2023-10-09T12:50:58;23.70;1.00
2945;DHT22;1482;51.398;7.128;2023-10-09T12:53:32;23.80;1.00
2945;DHT22;1482;51.398;7.128;2023-10-09T12:55:58;23.70;1.00
2945;DHT22;1482;51.398;7.128;2023-10-09T12:58:23;23.50;1.00
2945;DHT22;1482;51.398;7.128;2023-10-09T13:00:52;23.50;1.00
2945;DHT22;1482;51.398;7.128;2023-10-09T13:03:18;23.50;1.00
2945;DHT22;1482;51.398;7.128;2023-10-09T13:05:48;23.50;1.00
2945;DHT22;1482;51.398;7.128;2023-10-09T13:08:28;23.40;1.00
2945;DHT22;1482;51.398;7.128;2023-10-09T13:11:08;23.30;1.00
2945;DHT22;1482;51.398;7.128;2023-10-09T13:13:39;23.30;1.00
2945;DHT22;1482;51.398;7.128;2023-10-09T13:16:18;23.20;1.00
2945;DHT22;1482;51.398;7.128;2023-10-09T13:18:51;23.20;1.00
2945;DHT22;1482;51.398;7.128;2023-10-09T13:21:27;23.20;1.00
2945;DHT22;1482;51.398;7.128;2023-10-09T13:23:57;23.30;1.00
2945;DHT22;1482;51.398;7.128;2023-10-09T13:26:23;23.30;1.00
2945;DHT22;1482;51.398;7.128;2023-10-09T13:29:02;23.30;1.00
2945;DHT22;1482;51.398;7.128;2023-10-09T13:31:30;23.30;1.00
2945;DHT22;1482;51.398;7.128;2023-10-09T13:33:59;23.30;1.00
2945;DHT22;1482;51.398;7.128;2023-10-09T13:36:26;23.40;1.00
2945;DHT22;1482;51.398;7.128;2023-10-09T13:38:55;23.50;1.00
2945;DHT22;1482;51.398;7.128;2023-10-09T13:41:22;23.60;1.00
2945;DHT22;1482;51.398;7.128;2023-10-09T13:43:51;23.80;1.00
2945;DHT22;1482;51.398;7.128;2023-10-09T13:46:17;23.90;1.00
2945;DHT22;1482;51.398;7.128;2023-10-09T13:48:43;23.90;1.00
2945;DHT22;1482;51.398;7.128;2023-10-09T13:51:11;23.90;1.00
2945;DHT22;1482;51.398;7.128;2023-10-09T13:53:43;23.90;1.00
2945;DHT22;1482;51.398;7.128;2023-10-09T13:56:19;24.00;1.00
2945;DHT22;1482;51.398;7.128;2023-10-09T13:58:50;24.00;1.00
2945;DHT22;1482;51.398;7.128;2023-10-09T14:01:17;24.00;1.00
2945;DHT22;1482;51.398;7.128;2023-10-09T14:03:56;23.80;1.00
2945;DHT22;1482;51.398;7.128;2023-10-09T14:06:23;23.80;1.00
2945;DHT22;1482;51.398;7.128;2023-10-09T14:09:05;23.50;1.00
2945;DHT22;1482;51.398;7.128;2023-10-09T14:11:34;23.30;1.00
2945;DHT22;1482;51.398;7.128;2023-10-09T14:14:09;23.30;1.00
2945;DHT22;1482;51.398;7.128;2023-10-09T14:16:37;23.20;1.00
2945;DHT22;1482;51.398;7.128;2023-10-09T14:19:03;23.20;1.00
2945;DHT22;1482;51.398;7.128;2023-10-09T14:21:33;23.10;1.00
2945;DHT22;1482;51.398;7.128;2023-10-09T14:24:03;22.90;1.00
2945;DHT22;1482;51.398;7.128;2023-10-09T14:26:29;22.80;1.00
2945;DHT22;1482;51.398;7.128;2023-10-09T14:28:56;22.80;1.00
2945;DHT22;1482;51.398;7.128;2023-10-09T14:31:24;22.80;1.00
2945;DHT22;1482;51.398;7.128;2023-10-09T14:33:56;22.70;1.00
2945;DHT22;1482;51.398;7.128;2023-10-09T14:36:23;22.60;1.00
2945;DHT22;1482;51.398;7.128;2023-10-09T14:38:50;22.60;1.00
2945;DHT22;1482;51.398;7.128;2023-10-09T14:41:21;22.50;1.00
2945;DHT22;1482;51.398;7.128;2023-10-09T14:43:49;22.40;1.00
2945;DHT22;1482;51.398;7.128;2023-10-09T14:46:15;22.30;1.00
2945;DHT22;1482;51.398;7.128;2023-10-09T14:48:40;22.30;1.00
2945;DHT22;1482;51.398;7.128;2023-10-09T14:51:11;22.30;1.00
2945;DHT22;1482;51.398;7.128;2023-10-09T14:53:38;22.30;1.00
2945;DHT22;1482;51.398;7.128;2023-10-09T14:56:05;22.20;1.00
2945;DHT22;1482;51.398;7.128;2023-10-09T14:58:35;22.20;1.00
2945;DHT22;1482;51.398;7.128;2023-10-09T15:01:12;22.20;1.00
2945;DHT22;1482;51.398;7.128;2023-10-09T15:03:40;22.10;1.00
2945;DHT22;1482;51.398;7.128;2023-10-09T15:06:07;22.00;1.00
2945;DHT22;1482;51.398;7.128;2023-10-09T15:08:36;21.90;1.00
2945;DHT22;1482;51.398;7.128;2023-10-09T15:11:01;21.90;1.00
2945;DHT22;1482;51.398;7.128;2023-10-09T15:13:27;21.90;1.00
2945;DHT22;1482;51.398;7.128;2023-10-09T15:15:56;21.80;1.00
2945;DHT22;1482;51.398;7.128;2023-10-09T15:18:22;21.80;1.00
2945;DHT22;1482;51.398;7.128;2023-10-09T15:20:50;21.70;1.00
2945;DHT22;1482;51.398;7.128;2023-10-09T15:23:17;21.70;1.00
2945;DHT22;1482;51.398;7.128;2023-10-09T15:25:44;21.60;1.00
2945;DHT22;1482;51.398;7.128;2023-10-09T15:28:11;21.60;1.00
2945;DHT22;1482;51.398;7.128;2023-10-09T15:30:37;21.40;1.00
2945;DHT22;1482;51.398;7.128;2023-10-09T15:33:04;21.40;2.70
2945;DHT22;1482;51.398;7.128;2023-10-09T15:35:31;21.30;4.30
2945;DHT22;1482;51.398;7.128;2023-10-09T15:38:02;21.20;7.30
2945;DHT22;1482;51.398;7.128;2023-10-09T15:40:29;21.20;9.00
2945;DHT22;1482;51.398;7.128;2023-10-09T15:42:58;21.10;11.60
2945;DHT22;1482;51.398;7.128;2023-10-09T15:45:24;21.00;13.50
2945;DHT22;1482;51.398;7.128;2023-10-09T15:47:53;20.90;16.50
2945;DHT22;1482;51.398;7.128;2023-10-09T15:50:19;20.90;19.80
2945;DHT22;1482;51.398;7.128;2023-10-09T15:52:45;20.80;20.40
2945;DHT22;1482;51.398;7.128;2023-10-09T15:55:13;20.80;22.30
2945;DHT22;1482;51.398;7.128;2023-10-09T15:57:39;20.80;24.60
2945;DHT22;1482;51.398;7.128;2023-10-09T16:00:06;20.70;26.30
2945;DHT22;1482;51.398;7.128;2023-10-09T16:02:40;20.60;28.60
2945;DHT22;1482;51.398;7.128;2023-10-09T16:05:06;20.60;29.30
2945;DHT22;1482;51.398;7.128;2023-10-09T16:07:32;20.60;30.40
2945;DHT22;1482;51.398;7.128;2023-10-09T16:09:57;20.60;30.00
2945;DHT22;1482;51.398;7.128;2023-10-09T16:12:24;20.60;32.00
2945;DHT22;1482;51.398;7.128;2023-10-09T16:14:52;20.50;34.00
2945;DHT22;1482;51.398;7.128;2023-10-09T16:17:19;20.50;35.50
2945;DHT22;1482;51.398;7.128;2023-10-09T16:19:44;20.50;38.30
2945;DHT22;1482;51.398;7.128;2023-10-09T16:22:10;20.50;41.30
2945;DHT22;1482;51.398;7.128;2023-10-09T16:24:38;20.50;41.30
2945;DHT22;1482;51.398;7.128;2023-10-09T16:27:07;20.50;40.60
2945;DHT22;1482;51.398;7.128;2023-10-09T16:29:33;20.50;40.80
2945;DHT22;1482;51.398;7.128;2023-10-09T16:31:58;20.50;39.50
2945;DHT22;1482;51.398;7.128;2023-10-09T16:34:24;20.50;41.20
2945;DHT22;1482;51.398;7.128;2023-10-09T16:36:52;20.50;40.50
2945;DHT22;1482;51.398;7.128;2023-10-09T16:39:17;20.50;40.90
2945;DHT22;1482;51.398;7.128;2023-10-09T16:41:49;20.40;42.00
2945;DHT22;1482;51.398;7.128;2023-10-09T16:44:15;20.40;44.00
2945;DHT22;1482;51.398;7.128;2023-10-09T16:46:44;20.30;43.20
2945;DHT22;1482;51.398;7.128;2023-10-09T16:49:13;20.30;46.80
2945;DHT22;1482;51.398;7.128;2023-10-09T16:51:41;20.20;47.90
2945;DHT22;1482;51.398;7.128;2023-10-09T16:54:09;20.20;55.00
2945;DHT22;1482;51.398;7.128;2023-10-09T16:56:40;20.20;51.20